sensor_id;sensor_type;location;lat;lon;timestamp;pressure;altitude;pressure_sealevel;temperature;humidity
30744;BME280;17486;46.738;7.622;2023-09-18T00:02:17;94833.22;;;21.28;55.46
30744;BME280;17486;46.738;7.622;2023-09-18T00:04:42;94820.38;;;21.15;55.32
30744;BME280;17486;46.738;7.622;2023-09-18T00:07:08;94824.84;;;21.15;55.64
30744;BME280;17486;46.738;7.622;2023-09-18T00:09:36;94817.88;;;21.14;55.70
30744;BME280;17486;46.738;7.622;2023-09-18T00:12:01;94809.34;;;21.02;55.94
30744;BME280;17486;46.738;7.622;2023-09-18T00:14:27;94804.06;;;21.02;55.89
30744;BME280;17486;46.738;7.622;2023-09-18T00:16:52;94802.31;;;20.93;56.05
30744;BME280;17486;46.738;7.622;2023-09-18T00:19:18;94788.88;;;20.86;56.03
30744;BME280;17486;46.738;7.622;2023-09-18T00:21:43;94769.31;;;20.79;56.37
30744;BME280;17486;46.738;7.622;2023-09-18T00:24:08;94771.66;;;20.82;56.30
30744;BME280;17486;46.738;7.622;2023-09-18T00:26:34;94765.75;;;20.88;56.72
30744;BME280;17486;46.738;7.622;2023-09-18T00:28:59;94761.75;;;20.84;57.00
30744;BME280;17486;46.738;7.622;2023-09-18T00:31:25;94750.81;;;20.79;57.06
30744;BME280;17486;46.738;7.622;2023-09-18T00:33:50;94754.69;;;20.84;57.26
30744;BME280;17486;46.738;7.622;2023-09-18T00:36:15;94763.81;;;20.90;57.53
30744;BME280;17486;46.738;7.622;2023-09-18T00:38:41;94736.69;;;20.88;57.07
30744;BME280;17486;46.738;7.622;2023-09-18T00:41:06;94740.38;;;20.95;57.07
30744;BME280;17486;46.738;7.622;2023-09-18T00:43:32;94744.53;;;20.98;56.80
30744;BME280;17486;46.738;7.622;2023-09-18T00:45:57;94726.47;;;20.93;56.79
30744;BME280;17486;46.738;7.622;2023-09-18T00:48:23;94733.81;;;20.99;56.75
30744;BME280;17486;46.738;7.622;2023-09-18T00:50:49;94729.50;;;20.98;56.66
30744;BME280;17486;46.738;7.622;2023-09-18T00:53:17;94731.47;;;20.96;56.72
30744;BME280;17486;46.738;7.622;2023-09-18T00:55:44;94726.19;;;20.96;56.63
30744;BME280;17486;46.738;7.622;2023-09-18T00:58:10;94715.91;;;20.93;56.81
30744;BME280;17486;46.738;7.622;2023-09-18T01:00:35;94737.59;;;20.97;56.84
30744;BME280;17486;46.738;7.622;2023-09-18T01:03:01;94731.78;;;20.93;56.76
30744;BME280;17486;46.738;7.622;2023-09-18T01:05:31;94728.47;;;20.91;56.58
30744;BME280;17486;46.738;7.622;2023-09-18T01:07:57;94722.44;;;20.81;56.50
30744;BME280;17486;46.738;7.622;2023-09-18T01:10:24;94730.50;;;20.79;56.20
30744;BME280;17486;46.738;7.622;2023-09-18T01:13:23;94733.59;;;20.75;56.35
30744;BME280;17486;46.738;7.622;2023-09-18T01:15:57;94725.88;;;20.63;56.29
30744;BME280;17486;46.738;7.622;2023-09-18T01:18:24;94727.53;;;20.64;56.40
30744;BME280;17486;46.738;7.622;2023-09-18T01:20:50;94731.16;;;20.63;56.40
30744;BME280;17486;46.738;7.622;2023-09-18T01:23:15;94738.41;;;20.61;56.63
30744;BME280;17486;46.738;7.622;2023-09-18T01:25:40;94722.09;;;20.48;56.91
30744;BME280;17486;46.738;7.622;2023-09-18T01:28:06;94745.41;;;20.52;57.14
30744;BME280;17486;46.738;7.622;2023-09-18T01:30:31;94756.50;;;20.56;57.10
30744;BME280;17486;46.738;7.622;2023-09-18T01:32:58;94766.13;;;20.57;57.31
30744;BME280;17486;46.738;7.622;2023-09-18T01:35:25;94766.78;;;20.59;57.45
30744;BME280;17486;46.738;7.622;2023-09-18T01:37:59;94768.91;;;20.56;57.36
30744;BME280;17486;46.738;7.622;2023-09-18T01:40:25;94785.97;;;20.61;57.46
30744;BME280;17486;46.738;7.622;2023-09-18T01:42:51;94813.50;;;20.59;57.56
30744;BME280;17486;46.738;7.622;2023-09-18T01:45:17;94835.09;;;20.54;57.63
30744;BME280;17486;46.738;7.622;2023-09-18T01:47:42;94863.56;;;20.60;57.67
30744;BME280;17486;46.738;7.622;2023-09-18T01:50:08;94858.59;;;20.57;57.66
30744;BME280;17486;46.738;7.622;2023-09-18T01:52:34;94850.84;;;20.46;57.94
30744;BME280;17486;46.738;7.622;2023-09-18T01:55:00;94850.84;;;20.46;58.30
30744;BME280;17486;46.738;7.622;2023-09-18T01:57:26;94844.75;;;20.45;58.57
30744;BME280;17486;46.738;7.622;2023-09-18T01:59:51;94854.03;;;20.49;58.80
30744;BME280;17486;46.738;7.622;2023-09-18T02:02:16;94852.50;;;20.47;58.96
30744;BME280;17486;46.738;7.622;2023-09-18T02:04:42;94857.50;;;20.50;59.14
30744;BME280;17486;46.738;7.622;2023-09-18T02:07:08;94859.88;;;20.53;59.02
30744;BME280;17486;46.738;7.622;2023-09-18T02:09:34;94851.97;;;20.43;59.34
30744;BME280;17486;46.738;7.622;2023-09-18T02:11:59;94883.88;;;20.60;59.23
30744;BME280;17486;46.738;7.622;2023-09-18T02:14:24;94881.09;;;20.61;59.15
30744;BME280;17486;46.738;7.622;2023-09-18T02:16:50;94863.31;;;20.53;59.01
30744;BME280;17486;46.738;7.622;2023-09-18T02:19:16;94865.25;;;20.61;59.19
30744;BME280;17486;46.738;7.622;2023-09-18T02:21:43;94850.75;;;20.65;59.37
30744;BME280;17486;46.738;7.622;2023-09-18T02:24:08;94848.56;;;20.61;59.44
30744;BME280;17486;46.738;7.622;2023-09-18T02:26:34;94843.63;;;20.48;60.03
30744;BME280;17486;46.738;7.622;2023-09-18T02:29:03;94865.16;;;20.53;60.48
30744;BME280;17486;46.738;7.622;2023-09-18T02:31:29;94873.31;;;20.60;60.44
30744;BME280;17486;46.738;7.622;2023-09-18T02:33:55;94872.47;;;20.59;60.67
30744;BME280;17486;46.738;7.622;2023-09-18T02:36:21;94879.97;;;20.64;60.68
30744;BME280;17486;46.738;7.622;2023-09-18T02:38:46;94874.84;;;20.62;60.61
30744;BME280;17486;46.738;7.622;2023-09-18T02:41:11;94863.88;;;20.57;60.70
30744;BME280;17486;46.738;7.622;2023-09-18T02:43:37;94853.69;;;20.62;60.97
30744;BME280;17486;46.738;7.622;2023-09-18T02:46:03;94831.31;;;20.57;60.79
30744;BME280;17486;46.738;7.622;2023-09-18T02:48:29;94839.47;;;20.73;61.06
30744;BME280;17486;46.738;7.622;2023-09-18T02:50:54;94837.53;;;20.75;61.31
30744;BME280;17486;46.738;7.622;2023-09-18T02:53:21;94856.84;;;20.76;61.59
30744;BME280;17486;46.738;7.622;2023-09-18T02:55:48;94854.66;;;20.61;61.83
30744;BME280;17486;46.738;7.622;2023-09-18T02:58:13;94844.97;;;20.52;61.79
30744;BME280;17486;46.738;7.622;2023-09-18T03:00:47;94859.41;;;20.58;62.05
30744;BME280;17486;46.738;7.622;2023-09-18T03:03:13;94848.00;;;20.57;62.21
30744;BME280;17486;46.738;7.622;2023-09-18T03:05:39;94848.28;;;20.54;62.10
30744;BME280;17486;46.738;7.622;2023-09-18T03:08:05;94848.41;;;20.62;62.15
30744;BME280;17486;46.738;7.622;2023-09-18T03:10:35;94850.66;;;20.57;61.89
30744;BME280;17486;46.738;7.622;2023-09-18T03:13:02;94848.91;;;20.48;62.41
30744;BME280;17486;46.738;7.622;2023-09-18T03:15:28;94852.50;;;20.47;62.67
30744;BME280;17486;46.738;7.622;2023-09-18T03:17:53;94845.56;;;20.46;62.63
30744;BME280;17486;46.738;7.622;2023-09-18T03:20:22;94865.16;;;20.53;62.79
30744;BME280;17486;46.738;7.622;2023-09-18T03:22:47;94850.53;;;20.49;62.85
30744;BME280;17486;46.738;7.622;2023-09-18T03:25:13;94856.59;;;20.59;63.00
30744;BME280;17486;46.738;7.622;2023-09-18T03:27:39;94830.81;;;20.53;62.89
30744;BME280;17486;46.738;7.622;2023-09-18T03:30:05;94831.84;;;20.60;62.80
30744;BME280;17486;46.738;7.622;2023-09-18T03:32:30;94848.81;;;20.67;62.91
30744;BME280;17486;46.738;7.622;2023-09-18T03:34:56;94844.00;;;20.53;63.11
30744;BME280;17486;46.738;7.622;2023-09-18T03:37:21;94833.44;;;20.53;63.18
30744;BME280;17486;46.738;7.622;2023-09-18T03:39:46;94842.19;;;20.53;63.39
30744;BME280;17486;46.738;7.622;2023-09-18T03:42:12;94846.66;;;20.53;63.45
30744;BME280;17486;46.738;7.622;2023-09-18T03:44:37;94833.19;;;20.46;63.35
30744;BME280;17486;46.738;7.622;2023-09-18T03:47:03;94835.78;;;20.56;63.82
30744;BME280;17486;46.738;7.622;2023-09-18T03:49:29;94826.03;;;20.57;63.58
30744;BME280;17486;46.738;7.622;2023-09-18T03:51:54;94834.50;;;20.60;63.50
30744;BME280;17486;46.738;7.622;2023-09-18T03:54:20;94837.00;;;20.62;63.47
30744;BME280;17486;46.738;7.622;2023-09-18T03:56:45;94832.72;;;20.61;62.97
30744;BME280;17486;46.738;7.622;2023-09-18T03:59:12;94828.25;;;20.61;62.94
30744;BME280;17486;46.738;7.622;2023-09-18T04:01:37;94831.56;;;20.63;62.70
30744;BME280;17486;46.738;7.622;2023-09-18T04:04:03;94827.94;;;20.64;62.70
30744;BME280;17486;46.738;7.622;2023-09-18T04:06:40;94826.81;;;20.67;62.28
30744;BME280;17486;46.738;7.622;2023-09-18T04:09:06;94825.56;;;20.71;62.23
30744;BME280;17486;46.738;7.622;2023-09-18T04:11:31;94825.44;;;20.73;62.41
30744;BME280;17486;46.738;7.622;2023-09-18T04:13:58;94830.72;;;20.73;62.16
30744;BME280;17486;46.738;7.622;2023-09-18T04:16:25;94822.91;;;20.71;62.22
30744;BME280;17486;46.738;7.622;2023-09-18T04:18:50;94833.06;;;20.76;62.29
30744;BME280;17486;46.738;7.622;2023-09-18T04:21:15;94823.06;;;20.69;62.01
30744;BME280;17486;46.738;7.622;2023-09-18T04:23:41;94832.06;;;20.77;62.09
30744;BME280;17486;46.738;7.622;2023-09-18T04:26:06;94842.94;;;20.74;61.73
30744;BME280;17486;46.738;7.622;2023-09-18T04:28:32;94839.88;;;20.68;62.09
30744;BME280;17486;46.738;7.622;2023-09-18T04:31:00;94820.31;;;20.61;62.51
30744;BME280;17486;46.738;7.622;2023-09-18T04:33:25;94823.94;;;20.60;62.34
30744;BME280;17486;46.738;7.622;2023-09-18T04:35:51;94820.91;;;20.55;62.36
30744;BME280;17486;46.738;7.622;2023-09-18T04:38:16;94827.28;;;20.62;62.58
30744;BME280;17486;46.738;7.622;2023-09-18T04:40:44;94811.31;;;20.54;62.52
30744;BME280;17486;46.738;7.622;2023-09-18T04:43:11;94808.81;;;20.52;62.58
30744;BME280;17486;46.738;7.622;2023-09-18T04:45:36;94819.63;;;20.59;62.64
30744;BME280;17486;46.738;7.622;2023-09-18T04:48:02;94821.00;;;20.63;62.28
30744;BME280;17486;46.738;7.622;2023-09-18T04:50:28;94805.91;;;20.56;62.33
30744;BME280;17486;46.738;7.622;2023-09-18T04:52:53;94810.72;;;20.60;62.44
30744;BME280;17486;46.738;7.622;2023-09-18T04:55:21;94822.13;;;20.61;62.20
30744;BME280;17486;46.738;7.622;2023-09-18T04:57:46;94817.44;;;20.54;62.23
30744;BME280;17486;46.738;7.622;2023-09-18T05:00:12;94839.19;;;20.66;62.37
30744;BME280;17486;46.738;7.622;2023-09-18T05:02:39;94838.22;;;20.67;62.47
30744;BME280;17486;46.738;7.622;2023-09-18T05:05:05;94824.25;;;20.57;62.41
30744;BME280;17486;46.738;7.622;2023-09-18T05:07:30;94848.66;;;20.69;62.35
30744;BME280;17486;46.738;7.622;2023-09-18T05:09:57;94838.00;;;20.61;62.33
30744;BME280;17486;46.738;7.622;2023-09-18T05:12:23;94858.97;;;20.62;62.77
30744;BME280;17486;46.738;7.622;2023-09-18T05:14:48;94850.53;;;20.49;63.53
30744;BME280;17486;46.738;7.622;2023-09-18T05:17:15;94833.88;;;20.48;63.61
30744;BME280;17486;46.738;7.622;2023-09-18T05:19:41;94828.59;;;20.48;63.99
30744;BME280;17486;46.738;7.622;2023-09-18T05:22:10;94818.38;;;20.35;63.96
30744;BME280;17486;46.738;7.622;2023-09-18T05:24:39;94820.91;;;20.27;64.12
30744;BME280;17486;46.738;7.622;2023-09-18T05:27:04;94821.63;;;20.29;64.13
30744;BME280;17486;46.738;7.622;2023-09-18T05:29:33;94817.44;;;20.27;64.06
30744;BME280;17486;46.738;7.622;2023-09-18T05:32:00;94838.53;;;20.36;64.35
30744;BME280;17486;46.738;7.622;2023-09-18T05:34:25;94840.84;;;20.40;64.06
30744;BME280;17486;46.738;7.622;2023-09-18T05:36:51;94844.91;;;20.44;63.88
30744;BME280;17486;46.738;7.622;2023-09-18T05:39:17;94830.03;;;20.43;63.39
30744;BME280;17486;46.738;7.622;2023-09-18T05:41:42;94841.78;;;20.48;63.29
30744;BME280;17486;46.738;7.622;2023-09-18T05:44:08;94856.53;;;20.51;63.18
30744;BME280;17486;46.738;7.622;2023-09-18T05:46:35;94855.16;;;20.47;63.19
30744;BME280;17486;46.738;7.622;2023-09-18T05:49:00;94875.84;;;20.51;63.17
30744;BME280;17486;46.738;7.622;2023-09-18T05:51:26;94878.94;;;20.47;63.25
30744;BME280;17486;46.738;7.622;2023-09-18T05:53:52;94882.78;;;20.52;63.08
30744;BME280;17486;46.738;7.622;2023-09-18T05:56:18;94881.28;;;20.50;63.22
30744;BME280;17486;46.738;7.622;2023-09-18T05:58:43;94899.75;;;20.50;63.25
30744;BME280;17486;46.738;7.622;2023-09-18T06:01:08;94920.03;;;20.59;63.09
30744;BME280;17486;46.738;7.622;2023-09-18T06:03:34;94911.84;;;20.52;63.21
30744;BME280;17486;46.738;7.622;2023-09-18T06:06:04;94923.38;;;20.61;63.37
30744;BME280;17486;46.738;7.622;2023-09-18T06:08:30;94937.66;;;20.68;63.06
30744;BME280;17486;46.738;7.622;2023-09-18T06:10:56;94960.50;;;20.69;63.19
30744;BME280;17486;46.738;7.622;2023-09-18T06:13:23;94957.16;;;20.67;62.94
30744;BME280;17486;46.738;7.622;2023-09-18T06:15:49;94955.91;;;20.62;63.14
30744;BME280;17486;46.738;7.622;2023-09-18T06:18:17;94951.88;;;20.58;62.84
30744;BME280;17486;46.738;7.622;2023-09-18T06:20:44;94956.50;;;20.56;63.03
30744;BME280;17486;46.738;7.622;2023-09-18T06:23:10;94930.56;;;20.41;62.99
30744;BME280;17486;46.738;7.622;2023-09-18T06:25:35;94949.38;;;20.56;63.16
30744;BME280;17486;46.738;7.622;2023-09-18T06:28:02;94939.41;;;20.50;63.19
30744;BME280;17486;46.738;7.622;2023-09-18T06:30:29;94963.81;;;20.62;63.21
30744;BME280;17486;46.738;7.622;2023-09-18T06:32:56;94963.41;;;20.57;62.99
30744;BME280;17486;46.738;7.622;2023-09-18T06:35:21;94969.00;;;20.63;62.77
30744;BME280;17486;46.738;7.622;2023-09-18T06:37:47;94977.88;;;20.62;61.83
30744;BME280;17486;46.738;7.622;2023-09-18T06:40:13;94961.41;;;20.41;61.35
30744;BME280;17486;46.738;7.622;2023-09-18T06:42:39;94966.22;;;20.55;60.93
30744;BME280;17486;46.738;7.622;2023-09-18T06:45:05;94964.69;;;20.62;60.68
30744;BME280;17486;46.738;7.622;2023-09-18T06:47:32;94970.34;;;20.67;60.18
30744;BME280;17486;46.738;7.622;2023-09-18T06:49:58;94975.47;;;20.79;60.05
30744;BME280;17486;46.738;7.622;2023-09-18T06:52:23;94965.59;;;20.81;60.01
30744;BME280;17486;46.738;7.622;2023-09-18T06:54:50;94961.97;;;20.82;59.59
30744;BME280;17486;46.738;7.622;2023-09-18T06:57:15;94956.94;;;20.89;59.82
30744;BME280;17486;46.738;7.622;2023-09-18T06:59:41;94940.69;;;20.83;60.07
30744;BME280;17486;46.738;7.622;2023-09-18T07:02:06;94936.75;;;20.87;59.81
30744;BME280;17486;46.738;7.622;2023-09-18T07:04:32;94945.41;;;20.80;60.31
30744;BME280;17486;46.738;7.622;2023-09-18T07:06:57;94953.50;;;20.78;60.20
30744;BME280;17486;46.738;7.622;2023-09-18T07:09:23;94974.94;;;20.75;59.98
30744;BME280;17486;46.738;7.622;2023-09-18T07:11:49;94974.13;;;20.65;59.84
30744;BME280;17486;46.738;7.622;2023-09-18T07:14:15;95013.47;;;20.68;59.85
30744;BME280;17486;46.738;7.622;2023-09-18T07:16:41;95041.56;;;20.59;59.92
30744;BME280;17486;46.738;7.622;2023-09-18T07:19:06;95028.41;;;20.49;60.67
30744;BME280;17486;46.738;7.622;2023-09-18T07:21:32;94986.59;;;20.25;61.99
30744;BME280;17486;46.738;7.622;2023-09-18T07:24:00;94991.59;;;20.28;62.41
30744;BME280;17486;46.738;7.622;2023-09-18T07:26:25;95010.75;;;20.30;62.56
30744;BME280;17486;46.738;7.622;2023-09-18T07:28:50;95018.97;;;20.27;62.80
30744;BME280;17486;46.738;7.622;2023-09-18T07:31:16;95010.34;;;20.25;63.07
30744;BME280;17486;46.738;7.622;2023-09-18T07:33:41;95017.88;;;20.20;63.43
30744;BME280;17486;46.738;7.622;2023-09-18T07:36:07;95030.81;;;20.23;63.57
30744;BME280;17486;46.738;7.622;2023-09-18T07:38:32;95027.31;;;20.23;63.39
30744;BME280;17486;46.738;7.622;2023-09-18T07:40:58;95021.09;;;20.14;63.57
30744;BME280;17486;46.738;7.622;2023-09-18T07:43:24;95032.47;;;20.24;63.17
30744;BME280;17486;46.738;7.622;2023-09-18T07:45:50;95045.53;;;20.26;63.27
30744;BME280;17486;46.738;7.622;2023-09-18T07:48:16;95053.31;;;20.27;63.27
30744;BME280;17486;46.738;7.622;2023-09-18T07:50:45;95047.47;;;20.24;63.50
30744;BME280;17486;46.738;7.622;2023-09-18T07:53:11;95063.88;;;20.27;63.56
30744;BME280;17486;46.738;7.622;2023-09-18T07:55:36;95070.97;;;20.27;63.49
30744;BME280;17486;46.738;7.622;2023-09-18T07:58:01;95072.50;;;20.29;63.53
30744;BME280;17486;46.738;7.622;2023-09-18T08:00:28;95089.47;;;20.27;63.71
30744;BME280;17486;46.738;7.622;2023-09-18T08:02:55;95095.88;;;20.24;63.98
30744;BME280;17486;46.738;7.622;2023-09-18T08:05:28;95102.25;;;20.21;64.06
30744;BME280;17486;46.738;7.622;2023-09-18T08:07:55;95092.66;;;20.11;64.27
30744;BME280;17486;46.738;7.622;2023-09-18T08:10:30;95116.69;;;20.17;64.39
30744;BME280;17486;46.738;7.622;2023-09-18T08:12:55;95101.25;;;20.03;64.31
30744;BME280;17486;46.738;7.622;2023-09-18T08:15:21;95107.25;;;20.05;64.40
30744;BME280;17486;46.738;7.622;2023-09-18T08:17:47;95126.16;;;20.10;64.87
30744;BME280;17486;46.738;7.622;2023-09-18T08:20:15;95139.88;;;20.04;64.99
30744;BME280;17486;46.738;7.622;2023-09-18T08:22:41;95150.59;;;20.02;65.19
30744;BME280;17486;46.738;7.622;2023-09-18T08:25:07;95150.16;;;19.97;65.20
30744;BME280;17486;46.738;7.622;2023-09-18T08:27:41;95141.38;;;19.87;65.40
30744;BME280;17486;46.738;7.622;2023-09-18T08:30:09;95146.00;;;19.85;65.74
30744;BME280;17486;46.738;7.622;2023-09-18T08:32:37;95153.22;;;19.93;65.53
30744;BME280;17486;46.738;7.622;2023-09-18T08:35:02;95161.97;;;19.93;65.72
30744;BME280;17486;46.738;7.622;2023-09-18T08:37:28;95147.25;;;19.91;66.06
30744;BME280;17486;46.738;7.622;2023-09-18T08:39:54;95155.97;;;19.91;66.02
30744;BME280;17486;46.738;7.622;2023-09-18T08:42:20;95151.50;;;19.82;65.77
30744;BME280;17486;46.738;7.622;2023-09-18T08:44:49;95164.03;;;19.90;65.71
30744;BME280;17486;46.738;7.622;2023-09-18T08:47:17;95157.09;;;19.88;65.96
30744;BME280;17486;46.738;7.622;2023-09-18T08:49:43;95158.19;;;19.86;65.72
30744;BME280;17486;46.738;7.622;2023-09-18T08:52:10;95149.25;;;19.77;65.94
30744;BME280;17486;46.738;7.622;2023-09-18T08:54:36;95160.50;;;19.79;66.18
30744;BME280;17486;46.738;7.622;2023-09-18T08:57:01;95157.31;;;19.76;66.37
30744;BME280;17486;46.738;7.622;2023-09-18T08:59:29;95149.91;;;19.60;66.47
30744;BME280;17486;46.738;7.622;2023-09-18T09:01:56;95154.63;;;19.56;67.02
30744;BME280;17486;46.738;7.622;2023-09-18T09:04:21;95161.53;;;19.57;66.96
30744;BME280;17486;46.738;7.622;2023-09-18T09:06:48;95180.94;;;19.46;67.10
30744;BME280;17486;46.738;7.622;2023-09-18T09:09:14;95177.06;;;19.41;67.31
30744;BME280;17486;46.738;7.622;2023-09-18T09:11:39;95169.66;;;19.34;67.68
30744;BME280;17486;46.738;7.622;2023-09-18T09:14:14;95182.91;;;19.44;67.57
30744;BME280;17486;46.738;7.622;2023-09-18T09:16:50;95172.91;;;19.48;67.94
30744;BME280;17486;46.738;7.622;2023-09-18T09:19:17;95173.75;;;19.48;67.71
30744;BME280;17486;46.738;7.622;2023-09-18T09:21:43;95175.53;;;19.48;68.16
30744;BME280;17486;46.738;7.622;2023-09-18T09:24:10;95175.84;;;19.54;67.88
30744;BME280;17486;46.738;7.622;2023-09-18T09:26:40;95161.53;;;19.47;68.13
30744;BME280;17486;46.738;7.622;2023-09-18T09:29:19;95197.38;;;19.60;67.49
30744;BME280;17486;46.738;7.622;2023-09-18T09:31:46;95178.91;;;19.60;67.50
30744;BME280;17486;46.738;7.622;2023-09-18T09:34:12;95196.34;;;19.72;67.79
30744;BME280;17486;46.738;7.622;2023-09-18T09:36:55;95180.09;;;19.77;67.37
30744;BME280;17486;46.738;7.622;2023-09-18T09:39:21;95172.00;;;19.68;67.19
30744;BME280;17486;46.738;7.622;2023-09-18T09:41:54;95193.28;;;19.77;67.11
30744;BME280;17486;46.738;7.622;2023-09-18T09:44:20;95189.44;;;19.81;67.12
30744;BME280;17486;46.738;7.622;2023-09-18T09:46:49;95192.06;;;19.81;67.74
30744;BME280;17486;46.738;7.622;2023-09-18T09:49:15;95176.31;;;19.69;67.75
30744;BME280;17486;46.738;7.622;2023-09-18T09:51:41;95176.13;;;19.82;68.27
30744;BME280;17486;46.738;7.622;2023-09-18T09:54:07;95164.97;;;19.79;67.83
30744;BME280;17486;46.738;7.622;2023-09-18T09:56:49;95169.34;;;19.59;68.25
30744;BME280;17486;46.738;7.622;2023-09-18T09:59:19;95145.69;;;19.47;68.63
30744;BME280;17486;46.738;7.622;2023-09-18T10:01:48;95177.38;;;19.57;68.37
30744;BME280;17486;46.738;7.622;2023-09-18T10:04:16;95175.88;;;19.64;68.63
30744;BME280;17486;46.738;7.622;2023-09-18T10:06:45;95163.09;;;19.60;68.71
30744;BME280;17486;46.738;7.622;2023-09-18T10:09:14;95147.91;;;19.52;68.89
30744;BME280;17486;46.738;7.622;2023-09-18T10:11:43;95157.88;;;19.38;69.23
30744;BME280;17486;46.738;7.622;2023-09-18T10:14:19;95143.13;;;19.26;69.44
30744;BME280;17486;46.738;7.622;2023-09-18T10:16:52;95142.31;;;19.35;69.70
30744;BME280;17486;46.738;7.622;2023-09-18T10:19:49;95148.63;;;19.23;69.78
30744;BME280;17486;46.738;7.622;2023-09-18T10:22:25;95153.53;;;19.28;69.62
30744;BME280;17486;46.738;7.622;2023-09-18T10:24:57;95154.50;;;19.27;70.26
30744;BME280;17486;46.738;7.622;2023-09-18T10:27:25;95141.88;;;19.30;70.08
30744;BME280;17486;46.738;7.622;2023-09-18T10:29:52;95129.63;;;19.19;71.10
30744;BME280;17486;46.738;7.622;2023-09-18T10:32:20;95097.00;;;19.20;70.97
30744;BME280;17486;46.738;7.622;2023-09-18T10:34:47;95090.69;;;19.33;70.15
30744;BME280;17486;46.738;7.622;2023-09-18T10:37:14;95087.63;;;19.37;69.77
30744;BME280;17486;46.738;7.622;2023-09-18T10:39:41;95097.28;;;19.58;69.61
30744;BME280;17486;46.738;7.622;2023-09-18T10:42:09;95090.44;;;19.46;70.02
30744;BME280;17486;46.738;7.622;2023-09-18T10:44:35;95091.97;;;19.48;70.25
30744;BME280;17486;46.738;7.622;2023-09-18T10:47:04;95078.97;;;19.26;71.28
30744;BME280;17486;46.738;7.622;2023-09-18T10:49:31;95096.31;;;19.18;71.35
30744;BME280;17486;46.738;7.622;2023-09-18T10:51:57;95110.22;;;18.99;70.26
30744;BME280;17486;46.738;7.622;2023-09-18T10:54:25;95101.66;;;18.97;70.19
30744;BME280;17486;46.738;7.622;2023-09-18T10:56:52;95080.81;;;18.94;69.19
30744;BME280;17486;46.738;7.622;2023-09-18T10:59:17;95081.31;;;18.88;69.31
30744;BME280;17486;46.738;7.622;2023-09-18T11:01:44;95083.84;;;18.89;69.17
30744;BME280;17486;46.738;7.622;2023-09-18T11:04:10;95095.31;;;18.88;68.50
30744;BME280;17486;46.738;7.622;2023-09-18T11:09:29;95084.09;;;18.65;71.14
30744;BME280;17486;46.738;7.622;2023-09-18T11:14:56;95078.38;;;19.12;71.19
30744;BME280;17486;46.738;7.622;2023-09-18T11:17:39;95069.75;;;19.41;70.62
30744;BME280;17486;46.738;7.622;2023-09-18T11:20:21;95082.59;;;19.65;70.02
30744;BME280;17486;46.738;7.622;2023-09-18T11:22:59;95084.28;;;19.86;68.89
30744;BME280;17486;46.738;7.622;2023-09-18T11:25:39;95083.06;;;19.90;68.70
30744;BME280;17486;46.738;7.622;2023-09-18T11:28:15;95075.00;;;20.01;68.57
30744;BME280;17486;46.738;7.622;2023-09-18T11:30:54;95047.72;;;19.71;68.25
30744;BME280;17486;46.738;7.622;2023-09-18T11:33:37;95084.19;;;19.87;68.54
30744;BME280;17486;46.738;7.622;2023-09-18T11:36:07;95077.72;;;19.70;68.96
30744;BME280;17486;46.738;7.622;2023-09-18T11:39:00;95093.81;;;19.67;68.91
30744;BME280;17486;46.738;7.622;2023-09-18T11:41:30;95091.38;;;19.85;69.83
30744;BME280;17486;46.738;7.622;2023-09-18T11:46:48;95103.34;;;19.99;68.16
30744;BME280;17486;46.738;7.622;2023-09-18T11:49:21;95086.25;;;19.84;66.91
30744;BME280;17486;46.738;7.622;2023-09-18T11:51:58;95110.00;;;19.84;65.95
30744;BME280;17486;46.738;7.622;2023-09-18T11:54:23;95125.38;;;19.79;66.45
30744;BME280;17486;46.738;7.622;2023-09-18T11:56:49;95133.28;;;19.79;65.84
30744;BME280;17486;46.738;7.622;2023-09-18T11:59:15;95137.19;;;19.75;64.54
30744;BME280;17486;46.738;7.622;2023-09-18T12:01:40;95144.66;;;19.79;65.36
30744;BME280;17486;46.738;7.622;2023-09-18T12:04:06;95130.38;;;19.72;64.81
30744;BME280;17486;46.738;7.622;2023-09-18T12:06:38;95128.63;;;19.92;65.12
30744;BME280;17486;46.738;7.622;2023-09-18T12:09:05;95118.63;;;19.96;64.62
30744;BME280;17486;46.738;7.622;2023-09-18T12:11:32;95123.25;;;20.23;62.94
30744;BME280;17486;46.738;7.622;2023-09-18T12:13:59;95106.84;;;20.29;62.54
30744;BME280;17486;46.738;7.622;2023-09-18T12:16:25;95085.00;;;20.37;62.16
30744;BME280;17486;46.738;7.622;2023-09-18T12:18:50;95064.16;;;20.44;60.44
30744;BME280;17486;46.738;7.622;2023-09-18T12:21:16;95074.97;;;20.41;60.45
30744;BME280;17486;46.738;7.622;2023-09-18T12:23:44;95073.59;;;20.46;60.43
30744;BME280;17486;46.738;7.622;2023-09-18T12:26:14;95083.72;;;20.51;60.62
30744;BME280;17486;46.738;7.622;2023-09-18T12:28:41;95071.34;;;20.51;60.43
30744;BME280;17486;46.738;7.622;2023-09-18T12:31:10;95065.25;;;20.51;61.04
30744;BME280;17486;46.738;7.622;2023-09-18T12:33:37;95070.53;;;20.51;61.04
30744;BME280;17486;46.738;7.622;2023-09-18T12:36:03;95067.47;;;20.46;60.68
30744;BME280;17486;46.738;7.622;2023-09-18T12:38:30;95061.09;;;20.38;60.94
30744;BME280;17486;46.738;7.622;2023-09-18T12:40:55;95070.53;;;20.31;61.23
30744;BME280;17486;46.738;7.622;2023-09-18T12:43:22;95081.53;;;20.17;61.67
30744;BME280;17486;46.738;7.622;2023-09-18T12:45:49;95081.66;;;20.25;61.20
30744;BME280;17486;46.738;7.622;2023-09-18T12:48:15;95091.69;;;20.21;61.44
30744;BME280;17486;46.738;7.622;2023-09-18T12:50:41;95106.44;;;20.24;61.96
30744;BME280;17486;46.738;7.622;2023-09-18T12:53:13;95111.72;;;20.24;63.03
30744;BME280;17486;46.738;7.622;2023-09-18T12:55:41;95096.41;;;20.18;63.42
30744;BME280;17486;46.738;7.622;2023-09-18T12:58:10;95094.44;;;20.00;64.51
30744;BME280;17486;46.738;7.622;2023-09-18T13:00:36;95089.75;;;20.14;65.05
30744;BME280;17486;46.738;7.622;2023-09-18T13:03:03;95086.13;;;19.95;66.21
30744;BME280;17486;46.738;7.622;2023-09-18T13:05:30;95094.41;;;19.81;66.05
30744;BME280;17486;46.738;7.622;2023-09-18T13:08:02;95102.44;;;19.79;66.29
30744;BME280;17486;46.738;7.622;2023-09-18T13:10:28;95092.09;;;19.87;66.83